createdAt,value
2023-02-28T00:00:54.881Z,102105.91
2023-02-28T00:03:21.487Z,102104.88
2023-02-28T00:05:48.076Z,102101.69
2023-02-28T00:08:15.303Z,102113.53
2023-02-28T00:10:41.961Z,102097.59
2023-02-28T00:13:08.539Z,102104.44
2023-02-28T00:15:35.265Z,102107.00
2023-02-28T00:18:02.424Z,102102.69
2023-02-28T00:20:29.256Z,102103.25
2023-02-28T00:22:56.110Z,102100.88
2023-02-28T00:25:26.095Z,102105.91
2023-02-28T00:27:53.398Z,102107.50
2023-02-28T00:30:22.820Z,102105.22
2023-02-28T00:32:50.551Z,102115.19
2023-02-28T00:35:17.292Z,102109.63
2023-02-28T00:37:44.290Z,102113.78
2023-02-28T00:40:12.934Z,102112.59
2023-02-28T00:42:39.958Z,102117.38
2023-02-28T00:45:09.041Z,102105.03
2023-02-28T00:47:38.167Z,102113.97
2023-02-28T00:50:05.690Z,102112.84
2023-02-28T00:52:32.317Z,102119.94
2023-02-28T00:54:58.905Z,102110.88
2023-02-28T00:57:25.516Z,102116.38
2023-02-28T00:59:52.018Z,102109.19
2023-02-28T01:02:19.034Z,102114.91
2023-02-28T01:04:45.719Z,102117.75
2023-02-28T01:07:12.278Z,102124.00
2023-02-28T01:09:39.874Z,102118.88
2023-02-28T01:12:08.174Z,102118.22
2023-02-28T01:14:35.610Z,102123.19
2023-02-28T01:17:02.571Z,102121.75
2023-02-28T01:19:29.136Z,102133.38
2023-02-28T01:21:56.773Z,102122.41
2023-02-28T01:24:23.292Z,102124.84
2023-02-28T01:26:49.763Z,102115.59
2023-02-28T01:29:16.386Z,102115.78
2023-02-28T01:31:43.005Z,102109.69
2023-02-28T01:34:09.527Z,102106.25
2023-02-28T01:36:37.215Z,102109.88
2023-02-28T01:39:04.053Z,102117.69
2023-02-28T01:41:33.184Z,102103.28
2023-02-28T01:44:07.567Z,102103.88
2023-02-28T01:46:36.456Z,102105.81
2023-02-28T01:49:10.139Z,102103.81
2023-02-28T01:51:46.510Z,102101.13
2023-02-28T01:54:19.037Z,102095.69
2023-02-28T01:56:57.870Z,102093.63
2023-02-28T01:59:41.380Z,102089.47
2023-02-28T02:02:08.182Z,102091.19
2023-02-28T02:04:59.621Z,102081.09
2023-02-28T02:07:27.518Z,102089.94
2023-02-28T02:10:06.637Z,102086.97
2023-02-28T02:12:50.276Z,102078.09
2023-02-28T02:15:25.216Z,102077.50
2023-02-28T02:18:00.775Z,102068.31
2023-02-28T02:20:45.845Z,102079.66
2023-02-28T02:23:12.333Z,102068.69
2023-02-28T02:25:55.046Z,102077.09
2023-02-28T02:28:57.395Z,102077.56
2023-02-28T02:31:52.992Z,102077.50
2023-02-28T02:34:47.872Z,102073.50
2023-02-28T02:37:46.773Z,102082.97
2023-02-28T02:40:23.111Z,102078.44
2023-02-28T02:42:52.769Z,102075.66
2023-02-28T02:45:47.380Z,102080.66
2023-02-28T02:48:19.636Z,102083.53
2023-02-28T02:50:59.234Z,102078.22
2023-02-28T02:53:34.458Z,102086.16
2023-02-28T02:56:05.215Z,102078.06
2023-02-28T02:58:42.828Z,102077.25
2023-02-28T03:01:16.617Z,102086.72
2023-02-28T03:03:44.218Z,102084.22
2023-02-28T03:06:11.058Z,102084.38
2023-02-28T03:08:39.110Z,102081.03
2023-02-28T03:11:13.198Z,102084.38
2023-02-28T03:13:49.512Z,102083.16
2023-02-28T03:16:50.630Z,102069.47
2023-02-28T03:19:33.184Z,102087.81
2023-02-28T03:22:16.132Z,102081.38
2023-02-28T03:24:51.969Z,102078.75
2023-02-28T03:27:26.041Z,102079.84
2023-02-28T03:30:10.449Z,102082.56
2023-02-28T03:32:48.376Z,102086.22
2023-02-28T03:35:24.203Z,102081.41
2023-02-28T03:38:10.493Z,102085.91
2023-02-28T03:40:39.811Z,102084.81
2023-02-28T03:43:13.933Z,102089.69
2023-02-28T03:45:43.458Z,102087.91
2023-02-28T03:48:19.283Z,102090.66
2023-02-28T03:50:55.170Z,102092.41
2023-02-28T03:53:41.816Z,102096.19
2023-02-28T03:56:18.962Z,102091.50
2023-02-28T03:59:01.488Z,102085.78
2023-02-28T04:01:39.140Z,102095.91
2023-02-28T04:04:06.297Z,102086.47
2023-02-28T04:06:34.224Z,102095.53
2023-02-28T04:09:01.313Z,102086.28
2023-02-28T04:11:40.840Z,102086.66
2023-02-28T04:14:09.272Z,102093.09
2023-02-28T04:16:38.627Z,102085.34
2023-02-28T04:19:06.818Z,102089.81
2023-02-28T04:21:53.082Z,102098.22
2023-02-28T04:24:25.535Z,102101.91
2023-02-28T04:26:54.782Z,102088.38
2023-02-28T04:29:31.336Z,102094.00
2023-02-28T04:31:58.904Z,102090.56
2023-02-28T04:34:31.014Z,102096.66
2023-02-28T04:37:14.517Z,102093.06
2023-02-28T04:39:42.162Z,102100.03
2023-02-28T04:42:09.104Z,102096.63
2023-02-28T04:44:35.747Z,102104.28
2023-02-28T04:47:02.261Z,102102.66
2023-02-28T04:49:28.871Z,102102.06
2023-02-28T04:51:55.687Z,102106.78
2023-02-28T04:54:22.361Z,102099.22
2023-02-28T04:56:50.688Z,102111.25
2023-02-28T04:59:17.483Z,102106.31
2023-02-28T05:01:48.201Z,102107.53
2023-02-28T05:04:15.124Z,102103.94
2023-02-28T05:06:41.664Z,102106.47
2023-02-28T05:09:08.229Z,102105.72
2023-02-28T05:11:36.149Z,102107.81
2023-02-28T05:14:05.098Z,102110.47
2023-02-28T05:16:32.521Z,102112.81
2023-02-28T05:18:59.987Z,102122.34
2023-02-28T05:21:32.861Z,102114.69
2023-02-28T05:24:23.539Z,102108.56
2023-02-28T05:26:52.877Z,102120.56
2023-02-28T05:29:20.055Z,102123.44
2023-02-28T05:31:47.150Z,102112.75
2023-02-28T05:34:16.267Z,102120.69
2023-02-28T05:36:42.776Z,102118.09
2023-02-28T05:39:13.413Z,102122.09
2023-02-28T05:41:44.314Z,102126.63
2023-02-28T05:44:11.828Z,102122.13
2023-02-28T05:46:39.122Z,102124.44
2023-02-28T05:49:05.806Z,102125.47
2023-02-28T05:51:32.751Z,102124.44
2023-02-28T05:54:01.336Z,102129.06
2023-02-28T05:56:27.918Z,102120.13
2023-02-28T05:58:54.697Z,102132.66
2023-02-28T06:01:39.268Z,102123.47
2023-02-28T06:04:11.021Z,102137.44
2023-02-28T06:06:40.210Z,102133.09
2023-02-28T06:09:06.815Z,102137.72
2023-02-28T06:11:34.060Z,102138.00
2023-02-28T06:14:01.803Z,102142.16
2023-02-28T06:16:30.230Z,102144.50
2023-02-28T06:19:02.103Z,102151.88
2023-02-28T06:21:29.765Z,102135.09
2023-02-28T06:23:58.319Z,102152.09
2023-02-28T06:26:26.289Z,102158.16
2023-02-28T06:28:53.307Z,102148.53
2023-02-28T06:31:20.458Z,102149.84
2023-02-28T06:33:47.636Z,102154.75
2023-02-28T06:36:15.782Z,102153.59
2023-02-28T06:38:42.907Z,102161.97
2023-02-28T06:41:09.940Z,102155.00
2023-02-28T06:43:40.595Z,102156.47
2023-02-28T06:46:09.407Z,102166.34
2023-02-28T06:48:36.261Z,102158.47
2023-02-28T06:51:09.380Z,102160.88
2023-02-28T06:53:36.866Z,102158.41
2023-02-28T06:56:08.221Z,102169.28
2023-02-28T06:58:35.469Z,102162.22
2023-02-28T07:01:02.712Z,102160.94
2023-02-28T07:03:29.408Z,102162.97
2023-02-28T07:05:57.298Z,102166.44
2023-02-28T07:08:25.171Z,102166.91
2023-02-28T07:10:58.114Z,102167.91
2023-02-28T07:13:25.514Z,102164.16
2023-02-28T07:15:59.999Z,102159.63
2023-02-28T07:18:27.369Z,102173.81
2023-02-28T07:20:54.277Z,102165.03
2023-02-28T07:23:21.604Z,102172.94
2023-02-28T07:25:48.294Z,102179.03
2023-02-28T07:28:15.610Z,102180.75
2023-02-28T07:30:42.677Z,102177.00
2023-02-28T07:33:09.588Z,102179.75
2023-02-28T07:35:36.163Z,102184.78
2023-02-28T07:38:03.772Z,102182.66
2023-02-28T07:40:30.691Z,102182.88
2023-02-28T07:42:57.199Z,102188.47
2023-02-28T07:45:23.777Z,102192.03
2023-02-28T07:47:50.309Z,102188.66
2023-02-28T07:50:17.012Z,102191.50
2023-02-28T07:52:44.055Z,102187.34
2023-02-28T07:55:11.437Z,102177.63
2023-02-28T07:57:38.566Z,102188.00
2023-02-28T08:00:07.470Z,102194.94
2023-02-28T08:02:38.158Z,102194.19
2023-02-28T08:05:05.617Z,102196.09
2023-02-28T08:07:33.416Z,102187.66
2023-02-28T08:10:00.771Z,102194.59
2023-02-28T08:12:27.906Z,102201.19
2023-02-28T08:14:54.536Z,102199.91
2023-02-28T08:17:21.162Z,102204.31
2023-02-28T08:19:47.963Z,102201.09
2023-02-28T08:22:14.654Z,102198.34
2023-02-28T08:24:43.214Z,102185.78
2023-02-28T08:27:09.990Z,102192.09
2023-02-28T08:29:38.906Z,102193.56
2023-02-28T08:32:09.246Z,102198.59
2023-02-28T08:34:41.375Z,102202.75
2023-02-28T08:37:07.963Z,102193.06
2023-02-28T08:39:38.239Z,102197.63
2023-02-28T08:42:07.769Z,102191.72
2023-02-28T08:44:35.000Z,102198.78
2023-02-28T08:47:01.549Z,102195.66
2023-02-28T08:49:28.223Z,102195.34
2023-02-28T08:51:56.154Z,102187.13
2023-02-28T08:54:23.858Z,102196.41
2023-02-28T08:56:50.449Z,102189.13
2023-02-28T08:59:17.208Z,102195.22
2023-02-28T09:01:44.556Z,102192.63
2023-02-28T09:04:13.788Z,102193.09
2023-02-28T09:06:42.495Z,102189.59
2023-02-28T09:09:10.428Z,102188.84
2023-02-28T09:11:37.716Z,102182.75
2023-02-28T09:14:04.591Z,102181.81
2023-02-28T09:16:33.212Z,102192.69
2023-02-28T09:19:00.260Z,102189.78
2023-02-28T09:21:27.587Z,102186.00
2023-02-28T09:23:54.626Z,102182.72
2023-02-28T09:26:24.405Z,102182.06
2023-02-28T09:28:52.356Z,102176.88
2023-02-28T09:31:22.592Z,102183.94
2023-02-28T09:33:54.119Z,102182.72
2023-02-28T09:36:24.885Z,102190.13
2023-02-28T09:38:53.932Z,102192.53
2023-02-28T09:41:26.467Z,102190.47
2023-02-28T09:44:01.693Z,102188.25
2023-02-28T09:46:41.743Z,102178.22
2023-02-28T09:49:18.360Z,102178.50
2023-02-28T09:51:59.586Z,102172.16
2023-02-28T09:54:30.565Z,102183.97
2023-02-28T09:57:30.771Z,102182.06
2023-02-28T10:00:10.404Z,102185.69
2023-02-28T10:02:49.206Z,102183.53
2023-02-28T10:05:19.623Z,102184.19
2023-02-28T10:08:09.024Z,102189.06
2023-02-28T10:10:44.927Z,102178.78
2023-02-28T10:13:30.316Z,102184.44
2023-02-28T10:20:32.040Z,102172.94
2023-02-28T10:23:00.845Z,102166.47
2023-02-28T10:25:29.639Z,102171.56
2023-02-28T10:28:06.258Z,102169.19
2023-02-28T10:30:32.872Z,102173.69
2023-02-28T10:32:59.386Z,102166.41
2023-02-28T10:35:27.444Z,102167.16
2023-02-28T10:37:59.986Z,102165.59
2023-02-28T10:40:36.782Z,102153.69
2023-02-28T10:43:06.371Z,102159.72
2023-02-28T10:45:38.045Z,102159.91
2023-02-28T10:48:06.561Z,102164.91
2023-02-28T10:50:52.840Z,102163.25
2023-02-28T10:53:25.685Z,102157.56
2023-02-28T10:56:17.581Z,102157.59
2023-02-28T10:59:08.511Z,102158.44
2023-02-28T11:01:51.500Z,102151.28
2023-02-28T11:04:33.774Z,102151.78
2023-02-28T11:07:03.832Z,102155.31
2023-02-28T11:09:36.602Z,102141.28
2023-02-28T11:12:06.885Z,102154.44
2023-02-28T11:14:41.426Z,102146.88
2023-02-28T11:17:26.791Z,102159.09
2023-02-28T11:20:02.380Z,102163.00
2023-02-28T11:22:32.497Z,102151.22
2023-02-28T11:25:04.129Z,102149.41
2023-02-28T11:27:31.161Z,102154.94
2023-02-28T11:29:59.170Z,102154.97
2023-02-28T11:32:31.317Z,102149.81
2023-02-28T11:35:10.241Z,102155.78
2023-02-28T11:37:38.087Z,102146.06
2023-02-28T11:40:16.373Z,102146.59
2023-02-28T11:43:28.267Z,102143.75
2023-02-28T11:46:24.784Z,102137.53
2023-02-28T11:49:25.431Z,102135.94
2023-02-28T11:52:07.371Z,102138.94
2023-02-28T11:55:00.487Z,102137.25
2023-02-28T11:57:36.201Z,102139.38
2023-02-28T12:00:32.857Z,102130.22
2023-02-28T12:03:26.920Z,102133.34
2023-02-28T12:06:22.012Z,102131.38
2023-02-28T12:08:52.280Z,102120.84
2023-02-28T12:11:33.578Z,102114.94
2023-02-28T12:14:18.911Z,102111.31
2023-02-28T12:17:08.237Z,102110.88
2023-02-28T12:19:41.065Z,102097.91
2023-02-28T12:22:25.002Z,102088.41
2023-02-28T12:25:06.845Z,102099.75
2023-02-28T12:27:41.123Z,102095.44
2023-02-28T12:30:16.720Z,102083.41
2023-02-28T12:32:51.313Z,102081.44
2023-02-28T12:35:24.492Z,102086.47
2023-02-28T12:38:04.729Z,102080.00
2023-02-28T12:40:47.003Z,102075.41
2023-02-28T12:43:15.886Z,102076.41
2023-02-28T12:45:53.233Z,102073.88
2023-02-28T12:48:30.374Z,102079.78
2023-02-28T12:50:57.793Z,102074.72
2023-02-28T12:53:32.079Z,102073.03
2023-02-28T12:56:11.185Z,102071.03
2023-02-28T12:58:46.358Z,102071.69
2023-02-28T13:01:28.913Z,102062.56
2023-02-28T13:04:20.827Z,102060.81
2023-02-28T13:07:17.982Z,102053.72
2023-02-28T13:09:54.402Z,102062.44
2023-02-28T13:12:21.549Z,102058.22
2023-02-28T13:14:48.132Z,102046.00
2023-02-28T13:17:23.061Z,102058.66
2023-02-28T13:19:52.557Z,102056.78
2023-02-28T13:22:38.667Z,102055.22
2023-02-28T13:25:23.615Z,102052.78
2023-02-28T13:27:57.244Z,102044.81
2023-02-28T13:30:52.044Z,102037.09
2023-02-28T13:33:25.622Z,102035.56
2023-02-28T13:36:09.368Z,102040.53
2023-02-28T13:38:42.276Z,102034.41
2023-02-28T13:41:48.305Z,102028.88
2023-02-28T13:44:27.531Z,102027.63
2023-02-28T13:46:57.111Z,102029.25
2023-02-28T13:49:26.748Z,102040.97
2023-02-28T13:52:01.784Z,102032.19
2023-02-28T13:54:53.457Z,102023.91
2023-02-28T13:58:00.776Z,102023.81
2023-02-28T14:00:42.303Z,102025.44
2023-02-28T14:03:18.802Z,102035.22
2023-02-28T14:05:45.887Z,102032.31
2023-02-28T14:08:23.170Z,102027.28
2023-02-28T14:11:03.277Z,102031.22
2023-02-28T14:13:44.932Z,102027.97
2023-02-28T14:16:17.335Z,102027.41
2023-02-28T14:19:01.347Z,102033.94
2023-02-28T14:21:36.619Z,102035.91
2023-02-28T14:24:28.415Z,102030.72
2023-02-28T14:27:04.772Z,102030.78
2023-02-28T14:29:39.060Z,102026.84
2023-02-28T14:32:26.886Z,102031.34
2023-02-28T14:35:19.103Z,102024.88
2023-02-28T14:37:46.068Z,102025.94
2023-02-28T14:40:17.059Z,102028.69
2023-02-28T14:42:55.054Z,102016.44
2023-02-28T14:45:23.256Z,102023.69
2023-02-28T14:47:52.206Z,102020.06
2023-02-28T14:50:23.242Z,102015.13
2023-02-28T14:52:54.722Z,102010.72
2023-02-28T14:55:25.688Z,102003.88
2023-02-28T14:57:53.400Z,102007.28
2023-02-28T15:00:26.200Z,102004.47
2023-02-28T15:02:54.686Z,102003.88
2023-02-28T15:05:32.404Z,101993.22
2023-02-28T15:08:07.210Z,102006.41
2023-02-28T15:10:34.917Z,102011.19
2023-02-28T15:13:06.653Z,102003.69
2023-02-28T15:15:51.712Z,101993.53
2023-02-28T15:18:38.962Z,102003.19
2023-02-28T15:21:13.949Z,101995.16
2023-02-28T15:23:43.066Z,101998.31
2023-02-28T15:26:17.505Z,101991.09
2023-02-28T15:28:45.339Z,101997.81
2023-02-28T15:31:31.947Z,101996.53
2023-02-28T15:34:07.489Z,102001.22
2023-02-28T15:36:38.030Z,102011.44
2023-02-28T15:39:20.596Z,101998.44
2023-02-28T15:41:47.208Z,102001.41
2023-02-28T15:44:27.788Z,102001.56
2023-02-28T15:47:04.842Z,102007.09
2023-02-28T15:49:44.943Z,101999.91
2023-02-28T15:52:20.241Z,101995.03
2023-02-28T15:54:47.708Z,102002.00
2023-02-28T15:57:19.667Z,102001.06
2023-02-28T15:59:58.875Z,101997.13
2023-02-28T16:02:37.781Z,101996.63
2023-02-28T16:05:07.423Z,101999.56
2023-02-28T16:07:35.588Z,101997.53
2023-02-28T16:10:02.289Z,102004.13
2023-02-28T16:12:31.310Z,101999.91
2023-02-28T16:15:03.317Z,102004.00
2023-02-28T16:17:34.898Z,102002.94
2023-02-28T16:20:01.709Z,102007.81
2023-02-28T16:22:28.242Z,102007.13
2023-02-28T16:24:54.809Z,102002.94
2023-02-28T16:27:36.312Z,102011.59
2023-02-28T16:30:04.401Z,102003.94
2023-02-28T16:32:32.918Z,102000.91
2023-02-28T16:34:59.500Z,102013.66
2023-02-28T16:37:27.868Z,102018.09
2023-02-28T16:39:54.496Z,102013.84
2023-02-28T16:42:26.243Z,102020.22
2023-02-28T16:44:54.135Z,102017.78
2023-02-28T16:47:21.127Z,102010.03
2023-02-28T16:49:48.498Z,102011.09
2023-02-28T16:52:15.121Z,102024.31
2023-02-28T16:54:42.719Z,102021.22
2023-02-28T16:57:24.002Z,102027.28
2023-02-28T16:59:51.870Z,102031.63
2023-02-28T17:02:20.398Z,102031.56
2023-02-28T17:04:47.225Z,102035.84
2023-02-28T17:07:17.393Z,102032.69
2023-02-28T17:09:45.712Z,102035.44
2023-02-28T17:12:13.337Z,102031.75
2023-02-28T17:14:39.893Z,102040.06
2023-02-28T17:17:07.544Z,102041.44
2023-02-28T17:19:35.121Z,102028.97
2023-02-28T17:22:01.751Z,102042.09
2023-02-28T17:24:31.164Z,102048.44
2023-02-28T17:26:58.361Z,102042.22
2023-02-28T17:29:25.371Z,102049.53
2023-02-28T17:31:52.077Z,102047.47
2023-02-28T17:34:22.410Z,102045.72
2023-02-28T17:36:51.870Z,102051.13
2023-02-28T17:39:24.820Z,102052.16
2023-02-28T17:41:55.533Z,102049.09
2023-02-28T17:44:24.610Z,102054.28
2023-02-28T17:46:52.319Z,102051.28
2023-02-28T17:49:19.093Z,102047.34
2023-02-28T17:51:46.067Z,102052.72
2023-02-28T17:54:12.838Z,102051.22
2023-02-28T17:56:39.358Z,102059.75
2023-02-28T17:59:05.876Z,102059.63
2023-02-28T18:01:32.708Z,102059.25
2023-02-28T18:03:59.285Z,102056.66
2023-02-28T18:06:32.233Z,102060.13
2023-02-28T18:08:58.956Z,102059.63
2023-02-28T18:11:26.943Z,102055.31
2023-02-28T18:13:56.651Z,102057.53
2023-02-28T18:16:23.412Z,102067.38
2023-02-28T18:18:50.684Z,102062.56
2023-02-28T18:21:17.790Z,102059.47
2023-02-28T18:23:48.298Z,102070.47
2023-02-28T18:26:16.890Z,102068.91
2023-02-28T18:28:44.571Z,102064.44
2023-02-28T18:31:15.368Z,102065.97
2023-02-28T18:33:43.505Z,102072.53
2023-02-28T18:36:10.427Z,102066.00
2023-02-28T18:38:37.451Z,102070.13
2023-02-28T18:41:05.937Z,102063.53
2023-02-28T18:43:34.621Z,102072.56
2023-02-28T18:46:06.123Z,102067.72
2023-02-28T18:48:33.191Z,102073.44
2023-02-28T18:51:06.249Z,102065.78
2023-02-28T18:53:35.493Z,102071.59
2023-02-28T18:56:02.973Z,102066.88
2023-02-28T18:58:30.474Z,102072.91
2023-02-28T19:00:57.099Z,102075.97
2023-02-28T19:03:23.758Z,102073.63
2023-02-28T19:05:58.015Z,102066.16
2023-02-28T19:08:24.889Z,102069.59
2023-02-28T19:10:51.460Z,102068.72
2023-02-28T19:13:20.648Z,102072.75
2023-02-28T19:15:47.601Z,102063.44
2023-02-28T19:18:14.097Z,102072.97
2023-02-28T19:20:41.505Z,102070.84
2023-02-28T19:23:10.291Z,102067.88
2023-02-28T19:25:40.719Z,102072.75
2023-02-28T19:28:07.282Z,102075.81
2023-02-28T19:30:33.766Z,102071.09
2023-02-28T19:33:00.322Z,102076.22
2023-02-28T19:35:26.931Z,102075.56
2023-02-28T19:37:53.504Z,102071.78
2023-02-28T19:40:20.027Z,102075.50
2023-02-28T19:42:46.641Z,102073.81
2023-02-28T19:45:14.618Z,102073.03
2023-02-28T19:47:41.681Z,102073.25
2023-02-28T19:50:09.138Z,102086.09
2023-02-28T19:52:35.788Z,102076.75
2023-02-28T19:55:02.295Z,102088.41
2023-02-28T19:57:28.777Z,102093.25
2023-02-28T19:59:55.308Z,102091.28
2023-02-28T20:02:22.523Z,102084.75
2023-02-28T20:04:50.474Z,102093.91
2023-02-28T20:07:22.199Z,102096.19
2023-02-28T20:09:49.285Z,102089.78
2023-02-28T20:12:24.135Z,102094.13
2023-02-28T20:14:51.374Z,102089.19
2023-02-28T20:17:18.426Z,102088.78
2023-02-28T20:19:45.737Z,102091.09
2023-02-28T20:22:12.236Z,102088.78
2023-02-28T20:24:38.952Z,102087.94
2023-02-28T20:27:05.656Z,102086.81
2023-02-28T20:29:33.386Z,102095.22
2023-02-28T20:31:59.969Z,102083.38
2023-02-28T20:34:27.005Z,102088.38
2023-02-28T20:36:54.003Z,102081.94
2023-02-28T20:39:20.626Z,102083.84
2023-02-28T20:41:47.249Z,102084.78
2023-02-28T20:44:14.270Z,102082.66
2023-02-28T20:46:43.082Z,102088.22
2023-02-28T20:49:10.673Z,102090.69
2023-02-28T20:51:39.923Z,102093.50
2023-02-28T20:54:07.509Z,102089.16
2023-02-28T20:56:34.326Z,102080.38
2023-02-28T20:59:00.918Z,102088.47
2023-02-28T21:01:28.908Z,102090.13
2023-02-28T21:03:57.110Z,102090.75
2023-02-28T21:06:26.893Z,102091.69
2023-02-28T21:08:53.817Z,102089.16
2023-02-28T21:11:24.058Z,102096.25
2023-02-28T21:13:51.836Z,102096.72
2023-02-28T21:16:21.428Z,102092.16
2023-02-28T21:18:48.307Z,102100.47
2023-02-28T21:21:17.620Z,102099.06
2023-02-28T21:23:47.768Z,102099.16
2023-02-28T21:26:20.394Z,102100.78
2023-02-28T21:28:55.012Z,102096.91
2023-02-28T21:31:23.927Z,102106.09
2023-02-28T21:33:53.334Z,102095.19
2023-02-28T21:36:22.412Z,102103.94
2023-02-28T21:38:54.499Z,102100.38
2023-02-28T21:41:22.321Z,102095.81
2023-02-28T21:43:49.033Z,102104.38
2023-02-28T21:46:19.205Z,102107.91
2023-02-28T21:48:48.787Z,102103.25
2023-02-28T21:51:21.215Z,102103.19
2023-02-28T21:53:48.723Z,102103.06
2023-02-28T21:56:18.469Z,102096.34
2023-02-28T21:58:45.971Z,102102.16
2023-02-28T22:01:16.720Z,102095.84
2023-02-28T22:03:44.814Z,102105.41
2023-02-28T22:06:14.148Z,102106.44
2023-02-28T22:08:42.440Z,102094.00
2023-02-28T22:11:09.563Z,102097.44
2023-02-28T22:13:37.534Z,102094.00
2023-02-28T22:16:14.803Z,102099.16
2023-02-28T22:18:42.162Z,102106.22
2023-02-28T22:21:11.017Z,102102.75
2023-02-28T22:23:39.238Z,102099.63
2023-02-28T22:26:10.012Z,102096.72
2023-02-28T22:28:37.540Z,102095.94
2023-02-28T22:31:15.147Z,102096.41
2023-02-28T22:33:42.121Z,102091.53
2023-02-28T22:36:09.239Z,102089.28
2023-02-28T22:38:35.908Z,102091.91
2023-02-28T22:41:04.143Z,102093.94
2023-02-28T22:43:31.233Z,102098.84
2023-02-28T22:46:02.575Z,102092.41
2023-02-28T22:48:29.300Z,102092.84
2023-02-28T22:51:04.949Z,102084.84
2023-02-28T22:53:34.126Z,102103.19
2023-02-28T22:56:00.700Z,102102.38
2023-02-28T22:58:27.499Z,102091.63
2023-02-28T23:00:57.569Z,102097.28
2023-02-28T23:03:25.806Z,102099.53
2023-02-28T23:05:52.859Z,102103.28
2023-02-28T23:08:23.300Z,102100.94
2023-02-28T23:10:50.886Z,102096.59
2023-02-28T23:13:19.726Z,102101.31
2023-02-28T23:15:46.921Z,102106.06
2023-02-28T23:18:14.456Z,102114.78
2023-02-28T23:20:41.122Z,102113.19
2023-02-28T23:23:10.026Z,102116.06
2023-02-28T23:25:40.325Z,102106.88
2023-02-28T23:28:08.148Z,102117.03
2023-02-28T23:30:36.117Z,102113.06
2023-02-28T23:33:03.280Z,102115.56
2023-02-28T23:35:29.891Z,102121.44
2023-02-28T23:37:58.345Z,102119.13
2023-02-28T23:40:25.418Z,102115.38
2023-02-28T23:42:52.057Z,102121.06
2023-02-28T23:45:18.998Z,102126.63
2023-02-28T23:47:45.767Z,102124.03
2023-02-28T23:50:12.311Z,102128.66
2023-02-28T23:52:38.850Z,102119.97
2023-02-28T23:55:05.823Z,102122.97
2023-02-28T23:57:34.656Z,102134.41
